Time;durP1;ratioP1;P1;durP2;ratioP2;P2;SDS_P1;SDS_P2;PMS_P1;PMS_P2;Temp;Humidity;BMP_temperature;BMP_pressure;BME280_temperature;BME280_humidity;BME280_pressure;Samples;Min_cycle;Max_cycle;Signal;HPM_P1;HPM_P2
2022/08/21 00:00:08;;;;;;;5.07;3.30;;;;;;;;;;4997146;28;20248;-75
2022/08/21 00:02:38;;;;;;;4.53;2.90;;;;;;;;;;4995698;28;20201;-75
2022/08/21 00:05:07;;;;;;;5.00;3.43;;;;;;;;;;4994897;28;20201;-75
2022/08/21 00:07:35;;;;;;;5.47;3.50;;;;;;;;;;4993893;28;20194;-75
2022/08/21 00:10:04;;;;;;;5.83;3.13;;;;;;;;;;4989400;28;20278;-75
2022/08/21 00:12:32;;;;;;;4.50;3.10;;;;;;;;;;4994664;28;20689;-75
2022/08/21 00:15:01;;;;;;;5.67;3.33;;;;;;;;;;4994397;28;20678;-75
2022/08/21 00:17:29;;;;;;;4.50;3.20;;;;;;;;;;4994184;28;20225;-75
2022/08/21 00:19:59;;;;;;;5.43;3.43;;;;;;;;;;4994722;28;20633;-75
2022/08/21 00:22:27;;;;;;;5.33;3.20;;;;;;;;;;4994750;28;20201;-75
2022/08/21 00:24:56;;;;;;;6.33;3.70;;;;;;;;;;4996743;28;20205;-75
2022/08/21 00:27:25;;;;;;;5.97;4.03;;;;;;;;;;4998059;28;20208;-75
2022/08/21 00:29:55;;;;;;;5.30;4.10;;;;;;;;;;4996970;28;20248;-75
2022/08/21 00:32:24;;;;;;;5.33;4.17;;;;;;;;;;5017560;28;20204;-75
2022/08/21 00:34:53;;;;;;;7.90;4.40;;;;;;;;;;5003097;28;20578;-75
2022/08/21 00:37:22;;;;;;;5.87;4.10;;;;;;;;;;4998417;28;20201;-75
2022/08/21 00:39:51;;;;;;;6.73;4.20;;;;;;;;;;4996779;28;20228;-75
2022/08/21 00:42:20;;;;;;;8.23;4.07;;;;;;;;;;4998765;28;20209;-75
2022/08/21 00:44:49;;;;;;;7.03;3.80;;;;;;;;;;4996741;28;20209;-75
2022/08/21 00:47:18;;;;;;;7.87;4.20;;;;;;;;;;4998482;28;20737;-75
2022/08/21 00:49:46;;;;;;;5.20;3.80;;;;;;;;;;5003170;28;20225;-75
2022/08/21 00:52:18;;;;;;;6.20;3.80;;;;;;;;;;5018252;28;20589;-75
2022/08/21 00:54:50;;;;;;;5.27;3.73;;;;;;;;;;5004916;28;20205;-75
2022/08/21 00:57:21;;;;;;;5.60;3.73;;;;;;;;;;5007174;28;20228;-75
2022/08/21 00:59:55;;;;;;;7.13;3.70;;;;;;;;;;5003337;28;20316;-75
2022/08/21 01:02:23;;;;;;;5.57;3.70;;;;;;;;;;4998300;28;20194;-75
2022/08/21 01:04:52;;;;;;;5.70;3.20;;;;;;;;;;4997704;28;20268;-75
2022/08/21 01:07:21;;;;;;;6.90;3.50;;;;;;;;;;4998063;28;20228;-75
2022/08/21 01:09:53;;;;;;;5.13;3.80;;;;;;;;;;4996966;28;20260;-75
2022/08/21 01:12:21;;;;;;;4.20;3.13;;;;;;;;;;4996321;28;20252;-75
2022/08/21 01:14:50;;;;;;;3.97;3.30;;;;;;;;;;4997819;28;20626;-75
2022/08/21 01:17:18;;;;;;;4.53;4.03;;;;;;;;;;4997720;28;20209;-75
2022/08/21 01:19:47;;;;;;;5.33;4.00;;;;;;;;;;4996728;28;20225;-75
2022/08/21 01:22:17;;;;;;;7.33;4.10;;;;;;;;;;4997143;28;20295;-75
2022/08/21 01:24:45;;;;;;;6.00;4.03;;;;;;;;;;4996911;28;20217;-75
2022/08/21 01:27:13;;;;;;;7.50;4.30;;;;;;;;;;4997720;28;20579;-75
2022/08/21 01:29:45;;;;;;;7.40;4.37;;;;;;;;;;4997223;28;20756;-75
2022/08/21 01:32:15;;;;;;;7.30;4.43;;;;;;;;;;4997807;28;20186;-75
2022/08/21 01:34:46;;;;;;;6.57;4.60;;;;;;;;;;4995981;28;20212;-75
2022/08/21 01:37:14;;;;;;;7.50;4.27;;;;;;;;;;4997374;28;20205;-75
2022/08/21 01:39:47;;;;;;;5.77;4.30;;;;;;;;;;5001286;28;20233;-75
2022/08/21 01:42:15;;;;;;;5.50;4.30;;;;;;;;;;4997695;28;20248;-75
2022/08/21 01:44:44;;;;;;;4.93;3.83;;;;;;;;;;4996669;28;20213;-75
2022/08/21 01:47:13;;;;;;;6.93;4.03;;;;;;;;;;5000518;28;20205;-75
2022/08/21 01:49:43;;;;;;;5.70;4.13;;;;;;;;;;4996860;28;20229;-75
2022/08/21 01:52:12;;;;;;;4.37;3.97;;;;;;;;;;4996716;28;20208;-75
2022/08/21 01:54:41;;;;;;;8.87;4.47;;;;;;;;;;4986824;28;20209;-75
2022/08/21 01:57:12;;;;;;;6.10;3.63;;;;;;;;;;4996552;28;20288;-75
2022/08/21 01:59:41;;;;;;;5.07;3.80;;;;;;;;;;4995946;28;20233;-75
2022/08/21 02:02:09;;;;;;;7.90;4.30;;;;;;;;;;4996656;28;20205;-75
2022/08/21 02:04:37;;;;;;;6.43;4.27;;;;;;;;;;4996545;28;20732;-75
2022/08/21 02:07:06;;;;;;;7.50;4.53;;;;;;;;;;4996674;28;20280;-75
2022/08/21 02:09:35;;;;;;;7.20;4.77;;;;;;;;;;4995428;28;20584;-75
2022/08/21 02:12:07;;;;;;;6.67;4.97;;;;;;;;;;4996398;28;20194;-75
2022/08/21 02:14:37;;;;;;;7.10;4.83;;;;;;;;;;4996291;28;20607;-75
2022/08/21 02:17:06;;;;;;;6.53;4.80;;;;;;;;;;4991995;28;20218;-75
2022/08/21 02:19:37;;;;;;;8.20;4.93;;;;;;;;;;4990409;28;20673;-75
2022/08/21 02:22:08;;;;;;;7.70;4.53;;;;;;;;;;4996413;28;20189;-75
2022/08/21 02:24:37;;;;;;;7.23;4.20;;;;;;;;;;4995943;28;20201;-75
2022/08/21 02:27:22;;;;;;;5.23;3.90;;;;;;;;;;4996168;28;20208;-75
2022/08/21 02:29:56;;;;;;;8.10;4.00;;;;;;;;;;4997521;28;20244;-75
2022/08/21 02:32:25;;;;;;;6.00;4.23;;;;;;;;;;5000968;28;20283;-75
2022/08/21 02:34:54;;;;;;;6.40;4.30;;;;;;;;;;4987823;28;20214;-75
2022/08/21 02:37:24;;;;;;;5.07;3.80;;;;;;;;;;4976581;28;20607;-75
2022/08/21 02:39:52;;;;;;;5.73;3.60;;;;;;;;;;4990854;28;20674;-76
2022/08/21 02:42:21;;;;;;;4.87;4.00;;;;;;;;;;5000567;28;20205;-77
2022/08/21 02:44:49;;;;;;;7.67;4.17;;;;;;;;;;4995153;28;20209;-75
2022/08/21 02:47:19;;;;;;;5.90;4.00;;;;;;;;;;4995188;28;20213;-75
2022/08/21 02:49:47;;;;;;;4.73;4.00;;;;;;;;;;4988363;28;20279;-75
2022/08/21 02:52:16;;;;;;;5.47;4.10;;;;;;;;;;4994108;28;20205;-75
2022/08/21 02:54:44;;;;;;;5.63;4.43;;;;;;;;;;4992919;28;20209;-75
2022/08/21 02:57:12;;;;;;;6.23;4.27;;;;;;;;;;4993365;28;20202;-75
2022/08/21 02:59:41;;;;;;;5.97;4.33;;;;;;;;;;4988415;28;20221;-75
2022/08/21 03:02:11;;;;;;;9.57;4.30;;;;;;;;;;4974440;28;20210;-75
2022/08/21 03:04:41;;;;;;;4.87;4.47;;;;;;;;;;4984035;28;20226;-75
2022/08/21 03:07:15;;;;;;;7.23;4.50;;;;;;;;;;4993240;28;20213;-75
2022/08/21 03:09:43;;;;;;;6.87;4.63;;;;;;;;;;4993168;28;20218;-75
2022/08/21 03:12:23;;;;;;;5.10;4.50;;;;;;;;;;4994119;28;20204;-75
2022/08/21 03:14:51;;;;;;;5.97;4.30;;;;;;;;;;4995075;28;20215;-75
2022/08/21 03:17:19;;;;;;;5.37;4.27;;;;;;;;;;4977929;28;20206;-75
2022/08/21 03:19:58;;;;;;;6.73;4.30;;;;;;;;;;4986497;28;20319;-75
2022/08/21 03:22:27;;;;;;;6.57;4.33;;;;;;;;;;4995384;28;20220;-75
2022/08/21 03:24:58;;;;;;;7.53;4.40;;;;;;;;;;4993502;28;20209;-75
2022/08/21 03:27:27;;;;;;;5.70;4.43;;;;;;;;;;4977088;28;20214;-75
2022/08/21 03:29:57;;;;;;;6.83;4.60;;;;;;;;;;4990522;28;20336;-75
2022/08/21 03:32:25;;;;;;;6.63;4.23;;;;;;;;;;4980419;28;20256;-75
2022/08/21 03:34:54;;;;;;;6.17;4.13;;;;;;;;;;4984581;28;20213;-75
2022/08/21 03:37:24;;;;;;;5.90;4.17;;;;;;;;;;5009604;28;20262;-75
2022/08/21 03:39:52;;;;;;;7.73;4.10;;;;;;;;;;5001755;28;20567;-75
2022/08/21 03:42:21;;;;;;;6.03;3.70;;;;;;;;;;4982250;28;20256;-75
2022/08/21 03:44:49;;;;;;;6.27;4.37;;;;;;;;;;4988581;28;20201;-75
2022/08/21 03:47:18;;;;;;;5.13;4.00;;;;;;;;;;4994443;28;20212;-75
2022/08/21 03:49:46;;;;;;;8.00;4.40;;;;;;;;;;4994634;28;20236;-75
2022/08/21 03:52:15;;;;;;;6.40;4.10;;;;;;;;;;4983354;28;20725;-75
2022/08/21 03:54:46;;;;;;;5.80;4.07;;;;;;;;;;4990411;28;20216;-76
2022/08/21 03:57:14;;;;;;;4.97;3.97;;;;;;;;;;4993123;28;20208;-75
2022/08/21 03:59:43;;;;;;;7.07;4.30;;;;;;;;;;4993607;28;20229;-75
2022/08/21 04:02:12;;;;;;;5.53;3.93;;;;;;;;;;4986629;28;20635;-75
2022/08/21 04:04:40;;;;;;;6.83;3.90;;;;;;;;;;4983610;28;20208;-75
2022/08/21 04:07:08;;;;;;;5.33;4.43;;;;;;;;;;4994852;28;20658;-75
2022/08/21 04:09:37;;;;;;;7.40;4.17;;;;;;;;;;4987311;28;20710;-75
2022/08/21 04:12:07;;;;;;;7.47;4.33;;;;;;;;;;4985938;28;20197;-75
2022/08/21 04:14:35;;;;;;;7.60;4.97;;;;;;;;;;4987114;28;20209;-75
2022/08/21 04:17:05;;;;;;;6.60;4.30;;;;;;;;;;5003045;28;20654;-75
2022/08/21 04:19:33;;;;;;;7.10;4.83;;;;;;;;;;5002359;28;20228;-75
2022/08/21 04:22:02;;;;;;;7.40;4.30;;;;;;;;;;4994388;28;20205;-75
2022/08/21 04:24:30;;;;;;;9.73;5.17;;;;;;;;;;4989008;28;20631;-75
2022/08/21 04:26:58;;;;;;;7.77;4.47;;;;;;;;;;4992964;28;20236;-75
2022/08/21 04:29:28;;;;;;;7.20;4.53;;;;;;;;;;4994033;28;20574;-75
2022/08/21 04:31:57;;;;;;;9.10;5.03;;;;;;;;;;4993768;28;20205;-75
2022/08/21 04:34:25;;;;;;;8.00;5.37;;;;;;;;;;4994315;28;20576;-75
2022/08/21 04:36:54;;;;;;;5.73;4.50;;;;;;;;;;4994378;28;20235;-75
2022/08/21 04:39:22;;;;;;;7.80;5.33;;;;;;;;;;4995478;28;20232;-75
2022/08/21 04:41:57;;;;;;;10.43;5.07;;;;;;;;;;4995395;28;20200;-75
2022/08/21 04:44:25;;;;;;;8.67;5.27;;;;;;;;;;4994445;28;20213;-75
2022/08/21 04:46:55;;;;;;;5.63;5.10;;;;;;;;;;4994325;28;20695;-75
2022/08/21 04:49:23;;;;;;;6.43;4.90;;;;;;;;;;4993718;28;20232;-75
2022/08/21 04:51:52;;;;;;;9.53;5.93;;;;;;;;;;4989472;28;20209;-75
2022/08/21 04:54:21;;;;;;;7.23;5.20;;;;;;;;;;4983838;28;20255;-75
2022/08/21 04:56:51;;;;;;;8.97;5.27;;;;;;;;;;4991806;28;20205;-75
2022/08/21 04:59:22;;;;;;;8.03;5.17;;;;;;;;;;4994329;28;20288;-76
2022/08/21 05:01:51;;;;;;;7.93;5.37;;;;;;;;;;4998077;28;20213;-75
2022/08/21 05:04:23;;;;;;;6.17;5.33;;;;;;;;;;5012451;28;20649;-75
2022/08/21 05:06:52;;;;;;;8.10;5.63;;;;;;;;;;4994213;28;20212;-75
2022/08/21 05:09:22;;;;;;;9.70;6.40;;;;;;;;;;4992926;28;20232;-75
2022/08/21 05:11:51;;;;;;;9.13;5.87;;;;;;;;;;5000969;28;20201;-75
2022/08/21 05:14:20;;;;;;;10.07;5.93;;;;;;;;;;4998013;28;20209;-75
2022/08/21 05:16:49;;;;;;;7.33;5.67;;;;;;;;;;4997256;28;20216;-75
2022/08/21 05:19:17;;;;;;;8.63;6.13;;;;;;;;;;5001794;28;20229;-75
2022/08/21 05:21:48;;;;;;;13.17;7.10;;;;;;;;;;4997308;28;20221;-75
2022/08/21 05:24:17;;;;;;;9.47;6.43;;;;;;;;;;4997222;28;20208;-75
2022/08/21 05:26:46;;;;;;;10.03;6.27;;;;;;;;;;4989747;28;20206;-75
2022/08/21 05:29:15;;;;;;;9.47;7.00;;;;;;;;;;4996898;28;20283;-75
2022/08/21 05:31:46;;;;;;;7.87;6.53;;;;;;;;;;4987359;28;20643;-75
2022/08/21 05:34:15;;;;;;;8.90;6.53;;;;;;;;;;4981938;28;20212;-75
2022/08/21 05:36:44;;;;;;;11.97;7.10;;;;;;;;;;5004026;28;20231;-75
2022/08/21 05:39:14;;;;;;;10.37;7.43;;;;;;;;;;5009293;28;20236;-76
2022/08/21 05:41:42;;;;;;;8.93;7.47;;;;;;;;;;4983544;28;20221;-75
2022/08/21 05:44:11;;;;;;;10.70;8.13;;;;;;;;;;4996613;28;20624;-75
2022/08/21 05:46:39;;;;;;;10.43;7.93;;;;;;;;;;4992042;28;20201;-76
2022/08/21 05:49:08;;;;;;;11.90;8.23;;;;;;;;;;4996811;28;20752;-75
2022/08/21 05:51:36;;;;;;;14.47;8.77;;;;;;;;;;4996839;28;20200;-75
2022/08/21 05:54:05;;;;;;;12.73;9.00;;;;;;;;;;4996738;28;20212;-75
2022/08/21 05:56:35;;;;;;;11.13;9.00;;;;;;;;;;4999340;28;20205;-75
2022/08/21 05:59:04;;;;;;;9.97;8.40;;;;;;;;;;5011990;28;20236;-75
2022/08/21 06:01:36;;;;;;;12.83;9.23;;;;;;;;;;4996845;28;20229;-75
2022/08/21 06:04:06;;;;;;;11.90;9.03;;;;;;;;;;4991112;28;20281;-75
2022/08/21 06:06:35;;;;;;;11.07;9.77;;;;;;;;;;4995637;28;20205;-75
2022/08/21 06:09:04;;;;;;;11.53;9.40;;;;;;;;;;4996396;28;20233;-75
2022/08/21 06:11:33;;;;;;;14.57;10.30;;;;;;;;;;4996783;28;20236;-75
2022/08/21 06:14:06;;;;;;;11.93;9.73;;;;;;;;;;4994863;28;20216;-75
2022/08/21 06:16:34;;;;;;;11.63;9.63;;;;;;;;;;4977166;28;20213;-75
2022/08/21 06:19:02;;;;;;;11.77;9.77;;;;;;;;;;4989578;28;20283;-75
2022/08/21 06:21:31;;;;;;;11.30;9.63;;;;;;;;;;4977244;28;20676;-75
2022/08/21 06:24:02;;;;;;;12.10;10.00;;;;;;;;;;4995760;28;20205;-75
2022/08/21 06:26:31;;;;;;;13.37;9.67;;;;;;;;;;4999900;28;20200;-74
2022/08/21 06:28:59;;;;;;;13.17;8.50;;;;;;;;;;4995647;28;20232;-75
2022/08/21 06:31:29;;;;;;;11.23;8.67;;;;;;;;;;4996233;28;20209;-75
2022/08/21 06:33:58;;;;;;;13.47;8.90;;;;;;;;;;4995728;28;20205;-74
2022/08/21 06:36:27;;;;;;;11.38;8.20;;;;;;;;;;4996255;28;20206;-75
2022/08/21 06:38:56;;;;;;;10.85;8.07;;;;;;;;;;4996377;28;20233;-75
2022/08/21 06:41:25;;;;;;;11.05;8.20;;;;;;;;;;4991181;28;20228;-75
2022/08/21 06:43:54;;;;;;;10.18;7.35;;;;;;;;;;4994893;28;20295;-74
2022/08/21 06:46:23;;;;;;;11.98;7.15;;;;;;;;;;4996092;28;20263;-75
2022/08/21 06:48:53;;;;;;;12.32;6.70;;;;;;;;;;4994688;28;20225;-74
2022/08/21 06:51:22;;;;;;;10.07;6.43;;;;;;;;;;4990443;28;20205;-75
2022/08/21 06:53:50;;;;;;;8.45;6.57;;;;;;;;;;4995368;28;20212;-75
2022/08/21 06:56:19;;;;;;;6.53;5.38;;;;;;;;;;4995412;28;20202;-75
2022/08/21 06:58:47;;;;;;;9.82;5.55;;;;;;;;;;5009785;28;20232;-75
2022/08/21 07:01:16;;;;;;;7.50;5.72;;;;;;;;;;4995627;28;20283;-74
2022/08/21 07:03:45;;;;;;;7.32;4.97;;;;;;;;;;4994955;28;20678;-75
2022/08/21 07:06:14;;;;;;;5.70;3.90;;;;;;;;;;4976701;28;20261;-75
2022/08/21 07:08:43;;;;;;;7.35;3.60;;;;;;;;;;4990048;28;20259;-74
2022/08/21 07:11:13;;;;;;;5.03;3.05;;;;;;;;;;4997695;28;20228;-75
2022/08/21 07:13:42;;;;;;;7.70;3.40;;;;;;;;;;4994348;28;20201;-75
2022/08/21 07:16:10;;;;;;;8.43;3.25;;;;;;;;;;4985350;28;20213;-75
2022/08/21 07:18:39;;;;;;;7.45;3.00;;;;;;;;;;4996810;28;20217;-74
2022/08/21 07:21:08;;;;;;;4.15;2.70;;;;;;;;;;4994355;28;20213;-74
2022/08/21 07:23:38;;;;;;;5.53;2.70;;;;;;;;;;4996526;28;20252;-75
2022/08/21 07:26:07;;;;;;;5.55;2.60;;;;;;;;;;4995922;28;20207;-74
2022/08/21 07:28:36;;;;;;;4.60;2.33;;;;;;;;;;4996956;28;20834;-75
2022/08/21 07:31:05;;;;;;;4.07;2.42;;;;;;;;;;4982287;28;20206;-74
2022/08/21 07:33:35;;;;;;;4.47;2.53;;;;;;;;;;4986268;28;20197;-75
2022/08/21 07:36:04;;;;;;;5.57;2.30;;;;;;;;;;4995243;28;20205;-75
2022/08/21 07:38:32;;;;;;;6.00;2.40;;;;;;;;;;4993134;28;20922;-74
2022/08/21 07:41:03;;;;;;;4.60;2.22;;;;;;;;;;4995217;28;20248;-75
2022/08/21 07:43:31;;;;;;;3.70;2.08;;;;;;;;;;4992268;28;20218;-75
2022/08/21 07:46:01;;;;;;;5.35;2.35;;;;;;;;;;4996001;28;20564;-75
2022/08/21 07:48:29;;;;;;;3.97;2.13;;;;;;;;;;4978396;28;20289;-74
2022/08/21 07:51:07;;;;;;;6.82;2.35;;;;;;;;;;4993632;28;20208;-74
2022/08/21 07:53:36;;;;;;;5.22;2.17;;;;;;;;;;4994357;28;20292;-75
2022/08/21 07:56:08;;;;;;;6.95;2.53;;;;;;;;;;4995238;28;20545;-74
2022/08/21 07:58:36;;;;;;;4.88;2.30;;;;;;;;;;4994812;28;20212;-74
2022/08/21 08:01:06;;;;;;;6.10;2.50;;;;;;;;;;4994155;28;20651;-75
2022/08/21 08:03:35;;;;;;;4.95;2.55;;;;;;;;;;4996202;28;20209;-74
2022/08/21 08:06:04;;;;;;;5.60;2.40;;;;;;;;;;4981545;28;20209;-74
2022/08/21 08:08:32;;;;;;;6.90;2.60;;;;;;;;;;4994135;28;20213;-75
2022/08/21 08:11:01;;;;;;;6.88;2.65;;;;;;;;;;4989456;28;20216;-74
2022/08/21 08:13:32;;;;;;;6.00;2.72;;;;;;;;;;4995102;28;20263;-74
2022/08/21 08:16:00;;;;;;;5.63;2.75;;;;;;;;;;4995396;28;20217;-74
2022/08/21 08:18:29;;;;;;;7.05;2.90;;;;;;;;;;4985985;28;20209;-74
2022/08/21 08:20:57;;;;;;;6.63;3.08;;;;;;;;;;4994619;28;20209;-74
2022/08/21 08:23:27;;;;;;;6.63;2.85;;;;;;;;;;4990915;28;20229;-75
2022/08/21 08:25:55;;;;;;;6.47;3.03;;;;;;;;;;4995260;28;20228;-74
2022/08/21 08:28:23;;;;;;;5.47;2.60;;;;;;;;;;4994898;28;20205;-74
2022/08/21 08:30:53;;;;;;;8.65;2.35;;;;;;;;;;4993159;28;20926;-74
2022/08/21 08:33:22;;;;;;;8.98;2.75;;;;;;;;;;4994179;28;20201;-75
2022/08/21 08:35:51;;;;;;;5.03;2.47;;;;;;;;;;4994462;28;20205;-74
2022/08/21 08:38:21;;;;;;;7.53;2.83;;;;;;;;;;4994292;28;20201;-74
2022/08/21 08:40:54;;;;;;;5.13;2.28;;;;;;;;;;4994382;28;20205;-74
2022/08/21 08:43:23;;;;;;;5.82;2.78;;;;;;;;;;4996537;28;20228;-74
2022/08/21 08:45:53;;;;;;;7.22;2.90;;;;;;;;;;4998753;28;20636;-74
2022/08/21 08:48:34;;;;;;;7.80;2.42;;;;;;;;;;4999686;28;20748;-74
2022/08/21 08:51:03;;;;;;;5.63;2.47;;;;;;;;;;4996352;28;20727;-75
2022/08/21 08:53:34;;;;;;;4.97;2.45;;;;;;;;;;4998593;28;20208;-74
2022/08/21 08:56:03;;;;;;;4.53;2.28;;;;;;;;;;4999193;28;20201;-74
2022/08/21 08:58:33;;;;;;;4.55;2.08;;;;;;;;;;4999463;28;20216;-74
2022/08/21 09:01:02;;;;;;;9.30;2.50;;;;;;;;;;4999004;28;20209;-74
2022/08/21 09:03:32;;;;;;;4.20;2.25;;;;;;;;;;4997464;28;20224;-74
2022/08/21 09:06:04;;;;;;;7.63;2.60;;;;;;;;;;4998401;28;20682;-74
2022/08/21 09:08:41;;;;;;;6.38;2.20;;;;;;;;;;4997957;28;20189;-74
2022/08/21 09:11:12;;;;;;;4.30;2.20;;;;;;;;;;4997744;28;20243;-74
2022/08/21 09:13:48;;;;;;;4.25;2.15;;;;;;;;;;4995578;28;20194;-74
2022/08/21 09:16:21;;;;;;;3.50;2.00;;;;;;;;;;4979996;28;20249;-74
2022/08/21 09:18:56;;;;;;;7.22;2.03;;;;;;;;;;4984292;28;20232;-74
2022/08/21 09:21:29;;;;;;;5.88;2.40;;;;;;;;;;4997988;28;20201;-74
2022/08/21 09:24:04;;;;;;;3.67;2.10;;;;;;;;;;4997466;28;20229;-75
2022/08/21 09:26:36;;;;;;;6.88;2.33;;;;;;;;;;4998882;28;20579;-74
2022/08/21 09:29:06;;;;;;;4.43;1.90;;;;;;;;;;4997879;28;20221;-74
2022/08/21 09:31:37;;;;;;;4.20;1.80;;;;;;;;;;4998354;28;20216;-74
2022/08/21 09:34:08;;;;;;;7.13;2.20;;;;;;;;;;4998365;28;20202;-74
2022/08/21 09:36:40;;;;;;;5.82;1.98;;;;;;;;;;4997895;28;20205;-74
2022/08/21 09:39:09;;;;;;;6.50;2.25;;;;;;;;;;4994970;28;20221;-75
2022/08/21 09:41:38;;;;;;;6.85;2.42;;;;;;;;;;4997632;28;20251;-75
2022/08/21 09:44:07;;;;;;;4.20;2.15;;;;;;;;;;4996027;28;20225;-74
2022/08/21 09:46:36;;;;;;;4.65;2.47;;;;;;;;;;4997826;28;20216;-75
2022/08/21 09:49:05;;;;;;;3.78;1.85;;;;;;;;;;4989089;28;20217;-74
2022/08/21 09:51:51;;;;;;;7.00;2.25;;;;;;;;;;4993994;28;20216;-74
2022/08/21 09:54:22;;;;;;;5.95;2.17;;;;;;;;;;4992096;28;20201;-74
2022/08/21 09:59:42;;;;;;;5.15;2.08;;;;;;;;;;4990691;28;20236;-74
2022/08/21 10:02:29;;;;;;;5.57;2.30;;;;;;;;;;4996565;28;20205;-74
2022/08/21 10:05:00;;;;;;;4.55;2.13;;;;;;;;;;4997142;28;20621;-74
2022/08/21 10:07:32;;;;;;;4.43;2.10;;;;;;;;;;4979032;28;20618;-75
2022/08/21 10:10:04;;;;;;;5.32;2.10;;;;;;;;;;4991778;28;20573;-74
2022/08/21 10:12:38;;;;;;;7.00;2.08;;;;;;;;;;4994557;28;20216;-75
2022/08/21 10:15:11;;;;;;;4.60;2.22;;;;;;;;;;4991761;28;20217;-75
2022/08/21 10:17:45;;;;;;;3.53;2.03;;;;;;;;;;4997729;28;20209;-74
2022/08/21 10:20:16;;;;;;;6.70;2.17;;;;;;;;;;4996886;28;20224;-75
2022/08/21 10:22:48;;;;;;;7.07;2.13;;;;;;;;;;4994820;28;20205;-74
2022/08/21 10:25:20;;;;;;;5.35;2.10;;;;;;;;;;4995894;28;20201;-75
2022/08/21 10:27:55;;;;;;;5.20;2.30;;;;;;;;;;4994112;28;20608;-75
2022/08/21 10:30:29;;;;;;;5.25;2.33;;;;;;;;;;4988663;28;20224;-74
2022/08/21 10:33:03;;;;;;;4.32;2.40;;;;;;;;;;4993835;28;20202;-74
2022/08/21 10:35:34;;;;;;;5.88;2.10;;;;;;;;;;4996412;28;20197;-74
2022/08/21 10:38:12;;;;;;;5.30;2.30;;;;;;;;;;4996045;28;20651;-75
2022/08/21 10:41:05;;;;;;;3.30;1.98;;;;;;;;;;4977454;28;20628;-75
2022/08/21 10:43:39;;;;;;;6.07;1.92;;;;;;;;;;4984031;28;20709;-74
2022/08/21 10:46:13;;;;;;;3.53;1.83;;;;;;;;;;4997125;28;20259;-74
2022/08/21 10:48:46;;;;;;;4.38;1.70;;;;;;;;;;4995705;28;20223;-75
2022/08/21 10:51:18;;;;;;;6.10;2.10;;;;;;;;;;4993538;28;20675;-74
2022/08/21 10:54:01;;;;;;;4.13;1.90;;;;;;;;;;4995251;28;20205;-75
2022/08/21 10:56:31;;;;;;;2.63;1.77;;;;;;;;;;4996020;28;20665;-75
2022/08/21 10:59:17;;;;;;;4.13;2.00;;;;;;;;;;4993470;28;20259;-75
2022/08/21 11:01:48;;;;;;;5.53;1.95;;;;;;;;;;4994759;28;20233;-75
2022/08/21 11:04:19;;;;;;;5.47;2.05;;;;;;;;;;4995910;28;20279;-75
2022/08/21 11:06:49;;;;;;;4.38;1.70;;;;;;;;;;4995777;28;20213;-75
2022/08/21 11:09:20;;;;;;;4.15;1.77;;;;;;;;;;4993249;28;20316;-75
2022/08/21 11:11:51;;;;;;;4.45;2.08;;;;;;;;;;4995176;28;20743;-74
2022/08/21 11:14:43;;;;;;;4.68;1.92;;;;;;;;;;4988877;28;20209;-74
2022/08/21 11:17:20;;;;;;;4.20;2.00;;;;;;;;;;4992604;28;20213;-75
2022/08/21 11:19:51;;;;;;;3.08;1.90;;;;;;;;;;4994644;28;20311;-74
2022/08/21 11:22:22;;;;;;;5.63;1.95;;;;;;;;;;4987276;28;20213;-75
2022/08/21 11:24:58;;;;;;;6.38;1.90;;;;;;;;;;4990456;28;20308;-75
2022/08/21 11:27:30;;;;;;;5.05;1.88;;;;;;;;;;4991660;28;21015;-75
2022/08/21 11:30:00;;;;;;;4.38;1.80;;;;;;;;;;4995338;28;20225;-75
2022/08/21 11:32:37;;;;;;;2.90;1.75;;;;;;;;;;4995726;28;20225;-74
2022/08/21 11:35:11;;;;;;;4.85;2.22;;;;;;;;;;4993433;28;20197;-73
2022/08/21 11:37:46;;;;;;;5.63;2.20;;;;;;;;;;4993157;28;20256;-74
2022/08/21 11:40:22;;;;;;;3.97;1.80;;;;;;;;;;4991483;28;20278;-75
2022/08/21 11:42:56;;;;;;;4.85;2.13;;;;;;;;;;4987373;28;20209;-75
2022/08/21 11:45:34;;;;;;;5.25;2.50;;;;;;;;;;4993181;28;20235;-75
2022/08/21 11:48:12;;;;;;;4.63;2.00;;;;;;;;;;4995968;28;20224;-75
2022/08/21 11:50:42;;;;;;;5.55;2.10;;;;;;;;;;4992774;28;20221;-75
2022/08/21 11:53:14;;;;;;;4.95;2.15;;;;;;;;;;4995519;28;20256;-75
2022/08/21 11:55:48;;;;;;;4.80;2.08;;;;;;;;;;4992513;28;20197;-75
2022/08/21 11:58:21;;;;;;;3.25;1.70;;;;;;;;;;4984749;28;20201;-75
2022/08/21 12:00:51;;;;;;;3.58;2.30;;;;;;;;;;4990906;28;20201;-75
2022/08/21 12:03:24;;;;;;;4.88;2.30;;;;;;;;;;4995353;28;20201;-75
2022/08/21 12:05:54;;;;;;;4.30;2.03;;;;;;;;;;4991367;28;20284;-75
2022/08/21 12:08:30;;;;;;;4.35;2.20;;;;;;;;;;4986583;28;20228;-75
2022/08/21 12:11:06;;;;;;;3.33;2.05;;;;;;;;;;4984499;28;20674;-75
2022/08/21 12:13:35;;;;;;;4.82;2.13;;;;;;;;;;4993574;28;20236;-74
2022/08/21 12:16:11;;;;;;;3.22;1.83;;;;;;;;;;4995111;28;20267;-75
2022/08/21 12:18:39;;;;;;;4.18;2.15;;;;;;;;;;4992923;28;20224;-75
2022/08/21 12:21:24;;;;;;;3.22;2.28;;;;;;;;;;4992735;28;20292;-75
2022/08/21 12:24:01;;;;;;;5.95;2.22;;;;;;;;;;4997157;28;20212;-75
2022/08/21 12:26:32;;;;;;;5.15;2.20;;;;;;;;;;4999268;28;20199;-75
2022/08/21 12:29:09;;;;;;;4.53;2.08;;;;;;;;;;4998279;28;20232;-75
2022/08/21 12:31:37;;;;;;;3.95;2.25;;;;;;;;;;4998495;28;20205;-76
2022/08/21 12:34:11;;;;;;;3.67;2.15;;;;;;;;;;4998575;28;20208;-75
2022/08/21 12:36:43;;;;;;;4.57;2.50;;;;;;;;;;4998409;28;20239;-75
2022/08/21 12:39:18;;;;;;;4.50;2.35;;;;;;;;;;5002711;28;20229;-76
2022/08/21 12:41:51;;;;;;;2.85;2.40;;;;;;;;;;4987144;28;20205;-75
2022/08/21 12:44:24;;;;;;;3.38;2.05;;;;;;;;;;4998393;28;20233;-75
2022/08/21 12:46:57;;;;;;;4.85;2.53;;;;;;;;;;4997953;28;20630;-74
2022/08/21 12:49:30;;;;;;;6.25;2.45;;;;;;;;;;4995996;28;20236;-75
2022/08/21 12:52:02;;;;;;;4.85;2.53;;;;;;;;;;4998237;28;20235;-75
2022/08/21 12:54:31;;;;;;;5.63;2.38;;;;;;;;;;4999406;28;20193;-75
2022/08/21 12:57:02;;;;;;;6.03;2.60;;;;;;;;;;4997354;28;20259;-75
2022/08/21 12:59:30;;;;;;;4.40;2.53;;;;;;;;;;4999254;28;20224;-76
2022/08/21 13:02:01;;;;;;;4.82;2.50;;;;;;;;;;4997832;28;20205;-75
2022/08/21 13:04:35;;;;;;;4.10;2.20;;;;;;;;;;4990236;28;20210;-75
2022/08/21 13:07:07;;;;;;;5.00;2.40;;;;;;;;;;5003090;28;20614;-75
2022/08/21 13:09:35;;;;;;;4.43;2.30;;;;;;;;;;4982837;28;20230;-75
2022/08/21 13:12:09;;;;;;;5.40;2.42;;;;;;;;;;4994815;28;20201;-74
2022/08/21 13:14:38;;;;;;;3.97;2.60;;;;;;;;;;4997171;28;20658;-75
2022/08/21 13:17:15;;;;;;;4.72;2.80;;;;;;;;;;4997359;28;20572;-75
2022/08/21 13:19:58;;;;;;;3.50;2.63;;;;;;;;;;4996975;28;20231;-75
2022/08/21 13:22:27;;;;;;;5.47;2.47;;;;;;;;;;4993807;28;20204;-75
2022/08/21 13:25:02;;;;;;;2.78;2.30;;;;;;;;;;4996526;28;20628;-75
2022/08/21 13:27:36;;;;;;;3.60;2.17;;;;;;;;;;4996662;28;20558;-75
2022/08/21 13:30:07;;;;;;;3.95;2.63;;;;;;;;;;4996361;28;20690;-75
2022/08/21 13:32:37;;;;;;;4.75;2.40;;;;;;;;;;4995410;28;20209;-75
2022/08/21 13:35:10;;;;;;;3.45;2.35;;;;;;;;;;4997158;28;20244;-75
2022/08/21 13:37:40;;;;;;;4.30;2.50;;;;;;;;;;5010131;28;20732;-75
2022/08/21 13:40:11;;;;;;;4.22;2.40;;;;;;;;;;5008336;28;20221;-76
2022/08/21 13:42:43;;;;;;;4.03;2.33;;;;;;;;;;4993310;28;20256;-75
2022/08/21 13:45:14;;;;;;;6.38;2.50;;;;;;;;;;4993093;28;20701;-76
2022/08/21 13:47:44;;;;;;;4.82;2.53;;;;;;;;;;4996610;28;20201;-76
2022/08/21 13:50:14;;;;;;;5.03;2.55;;;;;;;;;;4999390;28;20232;-76
2022/08/21 13:52:51;;;;;;;3.70;2.22;;;;;;;;;;5003595;28;20205;-76
2022/08/21 13:55:19;;;;;;;4.15;2.20;;;;;;;;;;4996006;28;20185;-75
2022/08/21 13:57:59;;;;;;;6.43;2.70;;;;;;;;;;4999345;28;20255;-76
2022/08/21 14:00:30;;;;;;;3.65;2.45;;;;;;;;;;5003856;28;20266;-76
2022/08/21 14:03:04;;;;;;;4.35;2.60;;;;;;;;;;5003879;28;20213;-76
2022/08/21 14:05:34;;;;;;;4.88;2.42;;;;;;;;;;4994442;28;20628;-76
2022/08/21 14:08:05;;;;;;;4.20;2.45;;;;;;;;;;4996572;28;20205;-76
2022/08/21 14:10:36;;;;;;;3.88;2.72;;;;;;;;;;4995336;28;20221;-76
2022/08/21 14:13:07;;;;;;;3.35;2.67;;;;;;;;;;4996490;28;20252;-76
2022/08/21 14:15:38;;;;;;;8.98;3.10;;;;;;;;;;4994195;28;20209;-75
2022/08/21 14:18:15;;;;;;;6.57;2.58;;;;;;;;;;4993454;28;20211;-76
2022/08/21 14:20:43;;;;;;;5.80;2.95;;;;;;;;;;4995065;28;20208;-76
2022/08/21 14:23:13;;;;;;;4.95;2.80;;;;;;;;;;4995293;28;20697;-76
2022/08/21 14:25:43;;;;;;;4.15;2.50;;;;;;;;;;4990913;28;20218;-76
2022/08/21 14:28:17;;;;;;;3.22;2.30;;;;;;;;;;4994010;28;20213;-76
2022/08/21 14:30:47;;;;;;;4.82;3.03;;;;;;;;;;4979533;28;20201;-76
2022/08/21 14:33:24;;;;;;;4.70;2.50;;;;;;;;;;4996050;28;20288;-75
2022/08/21 14:35:53;;;;;;;4.63;2.80;;;;;;;;;;4993762;28;20197;-76
2022/08/21 14:38:22;;;;;;;4.53;3.03;;;;;;;;;;4993236;28;20208;-76
2022/08/21 14:40:52;;;;;;;4.97;2.40;;;;;;;;;;4994859;28;20264;-76
2022/08/21 14:43:22;;;;;;;4.95;2.60;;;;;;;;;;4994219;28;20214;-76
2022/08/21 14:45:50;;;;;;;5.22;2.60;;;;;;;;;;4994949;28;20621;-76
2022/08/21 14:48:19;;;;;;;4.85;2.60;;;;;;;;;;4995086;28;20624;-76
2022/08/21 14:50:48;;;;;;;4.05;2.72;;;;;;;;;;4992070;28;20268;-76
2022/08/21 14:53:17;;;;;;;6.18;3.05;;;;;;;;;;4994629;28;20678;-76
2022/08/21 14:58:36;;;;;;;4.95;2.58;;;;;;;;;;4991121;28;20205;-76
2022/08/21 15:01:06;;;;;;;4.88;2.90;;;;;;;;;;4994755;28;20209;-76
2022/08/21 15:03:35;;;;;;;3.92;2.33;;;;;;;;;;4993122;28;20201;-76
2022/08/21 15:06:04;;;;;;;7.40;2.70;;;;;;;;;;4994145;28;20694;-76